createdAt,value
2019-01-19T05:00:17.918Z,34.55
2019-01-19T05:02:52.712Z,35.63
2019-01-19T05:05:27.695Z,30.03
2019-01-19T05:08:02.899Z,31.30
2019-01-19T05:10:38.155Z,36.20
2019-01-19T05:13:13.372Z,31.33
2019-01-19T06:00:14.717Z,31.57
2019-01-19T06:02:49.783Z,32.83
2019-01-19T06:05:24.953Z,32.87
2019-01-19T06:07:59.853Z,28.70
2019-01-19T06:10:35.123Z,33.00
2019-01-19T06:13:10.316Z,34.50
2019-01-19T07:01:08.408Z,36.47
2019-01-19T07:03:43.549Z,40.33
2019-01-19T07:06:18.563Z,40.67
2019-01-19T07:08:53.683Z,40.87
2019-01-19T07:11:29.547Z,39.60
2019-01-19T07:14:04.659Z,38.63
2019-01-19T08:01:46.517Z,39.73
2019-01-19T08:04:09.003Z,37.93
2019-01-19T08:06:31.430Z,44.13
2019-01-19T08:08:53.874Z,37.50
2019-01-19T08:11:35.878Z,43.73
2019-01-19T08:14:11.279Z,42.93
2019-01-19T09:01:41.471Z,34.67
2019-01-19T09:04:04.111Z,35.80
2019-01-19T09:06:26.627Z,35.23
2019-01-19T09:08:49.170Z,34.80
2019-01-19T09:11:31.083Z,31.20
2019-01-19T09:14:05.985Z,36.03
2019-01-19T10:01:40.139Z,26.27
2019-01-19T10:04:15.073Z,22.87
2019-01-19T10:06:53.990Z,22.23
2019-01-19T10:09:29.190Z,25.80
2019-01-19T10:12:04.083Z,20.37
2019-01-19T10:14:39.632Z,26.97
2019-01-19T11:00:15.887Z,25.23
2019-01-19T11:02:38.646Z,30.07
2019-01-19T11:05:01.452Z,26.57
2019-01-19T11:07:25.356Z,26.20
2019-01-19T11:09:49.310Z,27.97
2019-01-19T11:12:11.797Z,28.10
2019-01-19T11:14:34.251Z,28.50
2019-01-19T12:01:26.411Z,26.70
2019-01-19T12:03:49.001Z,27.57
2019-01-19T12:06:11.665Z,27.13
2019-01-19T12:08:34.191Z,28.33
2019-01-19T12:10:56.648Z,25.90
2019-01-19T12:13:19.182Z,27.40
2019-01-19T13:01:12.582Z,32.03
2019-01-19T13:03:35.044Z,30.67
2019-01-19T13:06:11.850Z,33.97
2019-01-19T13:08:34.743Z,28.97
2019-01-19T13:11:42.031Z,28.57
2019-01-19T13:14:04.614Z,29.93
2019-01-19T14:01:24.190Z,31.87
2019-01-19T14:04:25.424Z,32.93
2019-01-19T14:07:32.535Z,30.17
2019-01-19T14:10:34.083Z,32.03
2019-01-19T14:13:31.114Z,31.23
2019-01-19T15:02:22.200Z,34.13
2019-01-19T15:05:12.391Z,28.53
2019-01-19T15:07:51.298Z,32.47
2019-01-19T15:10:30.654Z,31.50
2019-01-19T15:13:29.431Z,36.40
2019-01-19T16:02:49.284Z,39.87
2019-01-19T16:05:24.159Z,39.10
2019-01-19T16:07:59.266Z,38.57
2019-01-19T16:10:35.054Z,38.53
2019-01-19T16:13:09.784Z,38.23
2019-01-19T17:02:25.767Z,38.23
2019-01-19T17:05:00.890Z,45.43
2019-01-19T17:07:36.340Z,40.33
2019-01-19T17:10:10.999Z,45.00
2019-01-19T17:12:45.915Z,33.90
2019-01-19T18:02:46.711Z,50.00
2019-01-19T18:05:21.876Z,50.43
2019-01-19T18:07:56.911Z,50.33
2019-01-19T18:10:31.999Z,56.00
2019-01-19T18:13:06.951Z,49.83
2019-01-19T18:32:49.578Z,57.23
2019-01-19T18:35:38.939Z,50.67
2019-01-19T18:38:40.422Z,61.10
2019-01-19T18:43:50.173Z,61.60
2019-01-19T18:46:25.164Z,57.80
2019-01-19T18:49:01.255Z,59.33
2019-01-19T18:51:36.204Z,63.40
2019-01-19T18:54:11.212Z,67.13
2019-01-19T18:56:46.371Z,68.33
2019-01-19T18:59:21.327Z,58.83
2019-01-19T19:01:57.087Z,63.53
2019-01-19T19:04:32.126Z,66.63
2019-01-19T19:07:12.199Z,60.10
2019-01-19T19:09:48.034Z,63.73
2019-01-19T19:15:02.179Z,64.77
2019-01-19T19:17:37.297Z,65.10
2019-01-19T19:20:13.261Z,65.60
2019-01-19T19:22:49.222Z,77.17
2019-01-19T19:25:24.211Z,72.50
2019-01-19T19:27:59.303Z,70.80
2019-01-19T19:30:34.276Z,70.90
2019-01-19T19:33:09.262Z,77.67
2019-01-19T19:35:44.364Z,76.33
2019-01-19T19:38:19.539Z,81.80
2019-01-19T19:40:54.445Z,76.10
2019-01-19T19:43:29.595Z,79.20
2019-01-19T19:46:04.910Z,85.10
2019-01-19T19:48:40.208Z,90.10
2019-01-19T19:51:15.395Z,91.47
2019-01-19T19:53:50.519Z,95.43
2019-01-19T19:56:25.448Z,99.27
2019-01-19T19:59:00.556Z,96.67
2019-01-19T20:01:35.907Z,93.83
2019-01-19T20:04:11.188Z,89.47
2019-01-19T20:06:49.623Z,88.83
2019-01-19T20:09:23.335Z,85.47
2019-01-19T20:12:06.987Z,90.87
2019-01-19T20:14:43.147Z,87.57
2019-01-19T20:17:18.005Z,93.60
2019-01-19T20:19:53.009Z,91.10
2019-01-19T20:22:28.802Z,94.93
2019-01-19T20:27:40.083Z,94.17
2019-01-19T20:30:15.327Z,100.10
2019-01-19T20:32:50.600Z,93.37
2019-01-19T20:35:25.438Z,95.17
2019-01-19T20:38:00.427Z,92.50
2019-01-19T20:40:35.416Z,85.37
2019-01-19T20:43:10.557Z,89.70
2019-01-19T20:45:47.818Z,98.37
2019-01-19T20:48:23.370Z,95.93
2019-01-19T20:51:00.160Z,90.13
2019-01-19T20:53:35.019Z,94.77
2019-01-19T20:56:10.007Z,103.80
2019-01-19T20:58:46.066Z,103.87
2019-01-19T21:01:21.201Z,98.50
2019-01-19T21:03:56.275Z,105.27
2019-01-19T21:06:31.354Z,105.13
2019-01-19T21:09:08.396Z,108.90
2019-01-19T21:11:43.520Z,103.97
2019-01-19T21:14:18.398Z,106.27
